Private Wetterstation Sandau
Wetterdaten: Samstag, 09.06.2012
Datum Zeit Temp. A. Feuchte A. Luftdruck Regen Wind Richtung Richtung Taupunkt Windchill
09.06.2012 00:01 16,1 C 70 % 1010,1 hPa 0,0 l/m 3,6 km/h (1 Bft) S-SO 157 10,6 C 16,1 C
09.06.2012 00:06 16,1 C 70 % 1010,0 hPa 0,0 l/m 0,0 km/h (0 Bft) SO 135 10,6 C 16,1 C
09.06.2012 00:11 15,9 C 70 % 1010,0 hPa 0,0 l/m 0,0 km/h (0 Bft) S-SO 157 10,4 C 15,9 C
09.06.2012 00:16 15,8 C 70 % 1009,9 hPa 0,0 l/m 0,0 km/h (0 Bft) S-SO 157 10,3 C 15,8 C
09.06.2012 00:21 15,7 C 71 % 1010,0 hPa 0,0 l/m 2,2 km/h (1 Bft) S 180 10,5 C 15,7 C
09.06.2012 00:26 15,6 C 71 % 1010,0 hPa 0,0 l/m 2,2 km/h (1 Bft) SO 135 10,4 C 15,6 C
09.06.2012 00:31 15,6 C 71 % 1010,1 hPa 0,0 l/m 3,6 km/h (1 Bft) S-SO 157 10,4 C 15,6 C
09.06.2012 00:36 15,5 C 71 % 1010,1 hPa 0,0 l/m 5,0 km/h (1 Bft) SO 135 10,3 C 15,5 C
09.06.2012 00:41 15,4 C 71 % 1010,1 hPa 0,0 l/m 2,9 km/h (1 Bft) S-SO 157 10,2 C 15,4 C
09.06.2012 00:46 15,3 C 72 % 1010,1 hPa 0,0 l/m 3,2 km/h (1 Bft) SO 135 10,3 C 15,3 C
09.06.2012 00:51 15,3 C 72 % 1010,1 hPa 0,0 l/m 5,0 km/h (1 Bft) S-SO 157 10,3 C 15,3 C
09.06.2012 00:56 15,3 C 72 % 1010,1 hPa 0,0 l/m 2,5 km/h (1 Bft) SO 135 10,3 C 15,3 C
09.06.2012 01:01 15,3 C 72 % 1010,2 hPa 0,0 l/m 4,0 km/h (1 Bft) SO 135 10,3 C 15,3 C
09.06.2012 01:06 15,2 C 72 % 1010,2 hPa 0,0 l/m 2,2 km/h (1 Bft) S 180 10,2 C 15,2 C
09.06.2012 01:11 15,1 C 72 % 1010,3 hPa 0,0 l/m 4,0 km/h (1 Bft) S-SO 157 10,1 C 15,1 C
09.06.2012 01:16 15,1 C 72 % 1010,2 hPa 0,0 l/m 3,2 km/h (1 Bft) S-SO 157 10,1 C 15,1 C
09.06.2012 01:21 15,1 C 72 % 1010,3 hPa 0,0 l/m 2,5 km/h (1 Bft) S-SO 157 10,1 C 15,1 C
09.06.2012 01:26 14,9 C 73 % 1010,3 hPa 0,0 l/m 4,3 km/h (1 Bft) S-SO 157 10,1 C 14,9 C
09.06.2012 01:31 14,9 C 73 % 1010,4 hPa 0,0 l/m 0,0 km/h (0 Bft) S-SO 157 10,1 C 14,9 C
09.06.2012 01:36 14,9 C 74 % 1010,4 hPa 0,0 l/m 3,6 km/h (1 Bft) S 180 10,3 C 14,9 C
09.06.2012 01:41 14,9 C 74 % 1010,5 hPa 0,0 l/m 3,6 km/h (1 Bft) S 180 10,3 C 14,9 C
09.06.2012 01:46 14,7 C 75 % 1010,5 hPa 0,0 l/m 4,7 km/h (1 Bft) S-SO 157 10,3 C 14,7 C
09.06.2012 01:51 14,6 C 74 % 1010,3 hPa 0,0 l/m 6,8 km/h (2 Bft) S-SO 157 10,0 C 14,6 C
09.06.2012 01:56 14,4 C 75 % 1010,4 hPa 0,0 l/m 3,2 km/h (1 Bft) S 180 10,0 C 14,4 C
09.06.2012 02:01 14,4 C 75 % 1010,3 hPa 0,0 l/m 5,8 km/h (2 Bft) S 180 10,0 C 14,4 C
09.06.2012 02:06 14,3 C 76 % 1010,4 hPa 0,0 l/m 11,9 km/h (2 Bft) S-SW 202 10,1 C 14,3 C
09.06.2012 02:11 14,2 C 76 % 1010,4 hPa 0,0 l/m 4,3 km/h (1 Bft) S-SW 202 10,0 C 14,2 C
09.06.2012 02:16 14,2 C 76 % 1010,4 hPa 0,0 l/m 6,5 km/h (2 Bft) S-SO 157 10,0 C 14,2 C
09.06.2012 02:21 14,2 C 76 % 1010,4 hPa 0,0 l/m 4,0 km/h (1 Bft) SO 135 10,0 C 14,2 C
09.06.2012 02:26 14,2 C 76 % 1010,5 hPa 0,0 l/m 2,2 km/h (1 Bft) SO 135 10,0 C 14,2 C
09.06.2012 02:31 14,1 C 76 % 1010,6 hPa 0,0 l/m 2,9 km/h (1 Bft) S-SW 202 9,9 C 14,1 C
09.06.2012 02:36 14,1 C 76 % 1010,6 hPa 0,0 l/m 3,2 km/h (1 Bft) S 180 9,9 C 14,1 C
09.06.2012 02:41 14,1 C 76 % 1010,6 hPa 0,0 l/m 7,2 km/h (2 Bft) S-SO 157 9,9 C 14,1 C
09.06.2012 02:46 14,1 C 76 % 1010,7 hPa 0,0 l/m 6,1 km/h (2 Bft) S-SO 157 9,9 C 14,1 C
09.06.2012 02:51 14,1 C 76 % 1010,7 hPa 0,0 l/m 5,0 km/h (1 Bft) S-SW 202 9,9 C 14,1 C
09.06.2012 02:56 14,1 C 76 % 1010,7 hPa 0,0 l/m 5,0 km/h (1 Bft) S 180 9,9 C 14,1 C
09.06.2012 03:01 14,1 C 76 % 1010,8 hPa 0,0 l/m 5,0 km/h (1 Bft) SW 225 9,9 C 14,1 C
09.06.2012 03:06 14,1 C 76 % 1010,8 hPa 0,0 l/m 0,0 km/h (0 Bft) SO 135 9,9 C 14,1 C
09.06.2012 03:11 14,0 C 76 % 1010,9 hPa 0,0 l/m 2,9 km/h (1 Bft) S-SO 157 9,8 C 14,0 C
09.06.2012 03:16 14,1 C 77 % 1010,9 hPa 0,0 l/m 2,2 km/h (1 Bft) S-SW 202 10,1 C 14,1 C
09.06.2012 03:21 14,1 C 77 % 1010,8 hPa 0,0 l/m 5,8 km/h (2 Bft) S 180 10,1 C 14,1 C
09.06.2012 03:26 14,1 C 77 % 1010,7 hPa 0,0 l/m 3,2 km/h (1 Bft) S-SW 202 10,1 C 14,1 C
09.06.2012 03:31 14,1 C 77 % 1010,7 hPa 0,0 l/m 0,0 km/h (0 Bft) S-SO 157 10,1 C 14,1 C
09.06.2012 03:36 14,2 C 77 % 1010,7 hPa 0,0 l/m 2,2 km/h (1 Bft) S-SO 157 10,2 C 14,2 C
09.06.2012 03:41 14,3 C 77 % 1010,7 hPa 0,0 l/m 3,2 km/h (1 Bft) S-SO 157 10,3 C 14,3 C
09.06.2012 03:46 14,3 C 77 % 1010,8 hPa 0,0 l/m 4,3 km/h (1 Bft) SW 225 10,3 C 14,3 C
09.06.2012 03:51 14,3 C 77 % 1010,8 hPa 0,0 l/m 6,1 km/h (2 Bft) S-SW 202 10,3 C 14,3 C
09.06.2012 03:56 14,3 C 77 % 1010,8 hPa 0,0 l/m 5,8 km/h (2 Bft) SW 225 10,3 C 14,3 C
09.06.2012 04:01 14,2 C 77 % 1010,7 hPa 0,0 l/m 5,0 km/h (1 Bft) S-SW 202 10,2 C 14,2 C
09.06.2012 04:06 14,2 C 76 % 1010,8 hPa 0,0 l/m 0,0 km/h (0 Bft) S 180 10,0 C 14,2 C
09.06.2012 04:11 14,2 C 76 % 1010,7 hPa 0,0 l/m 5,8 km/h (2 Bft) S-SW 202 10,0 C 14,2 C
09.06.2012 04:16 14,2 C 76 % 1010,8 hPa 0,0 l/m 2,2 km/h (1 Bft) S-SO 157 10,0 C 14,2 C
09.06.2012 04:21 14,2 C 76 % 1010,8 hPa 0,0 l/m 0,0 km/h (0 Bft) S-SO 157 10,0 C 14,2 C
09.06.2012 04:26 14,2 C 76 % 1010,8 hPa 0,0 l/m 1,4 km/h (1 Bft) S-SO 157 10,0 C 14,2 C
09.06.2012 04:31 14,2 C 76 % 1010,9 hPa 0,0 l/m 2,9 km/h (1 Bft) S-SW 202 10,0 C 14,2 C
09.06.2012 04:36 14,2 C 76 % 1010,9 hPa 0,0 l/m 0,0 km/h (0 Bft) S-SW 202 10,0 C 14,2 C
09.06.2012 04:41 14,1 C 76 % 1010,9 hPa 0,0 l/m 2,9 km/h (1 Bft) S 180 9,9 C 14,1 C
09.06.2012 04:46 14,1 C 76 % 1010,9 hPa 0,0 l/m 0,0 km/h (0 Bft) S 180 9,9 C 14,1 C
09.06.2012 04:51 14,1 C 76 % 1011,0 hPa 0,0 l/m 1,8 km/h (1 Bft) S-SW 202 9,9 C 14,1 C
09.06.2012 04:56 14,1 C 76 % 1011,0 hPa 0,0 l/m 1,8 km/h (1 Bft) S-SO 157 9,9 C 14,1 C
09.06.2012 05:01 14,0 C 76 % 1011,1 hPa 0,0 l/m 1,1 km/h (1 Bft) S-SO 157 9,8 C 14,0 C
09.06.2012 05:06 13,9 C 76 % 1011,1 hPa 0,0 l/m 2,9 km/h (1 Bft) S-SW 202 9,7 C 13,9 C
09.06.2012 05:11 13,9 C 76 % 1011,1 hPa 0,0 l/m 1,4 km/h (1 Bft) S-SO 157 9,7 C 13,9 C
09.06.2012 05:16 13,9 C 76 % 1011,3 hPa 0,0 l/m 0,0 km/h (0 Bft) S 180 9,7 C 13,9 C
09.06.2012 05:21 13,9 C 76 % 1011,3 hPa 0,0 l/m 4,0 km/h (1 Bft) S 180 9,7 C 13,9 C
09.06.2012 05:26 13,8 C 76 % 1011,3 hPa 0,0 l/m 3,2 km/h (1 Bft) S 180 9,6 C 13,8 C
09.06.2012 05:31 13,8 C 76 % 1011,3 hPa 0,0 l/m 2,2 km/h (1 Bft) S-SO 157 9,6 C 13,8 C
09.06.2012 05:36 13,8 C 76 % 1011,3 hPa 0,0 l/m 2,5 km/h (1 Bft) S-SW 202 9,6 C 13,8 C
09.06.2012 05:41 13,8 C 77 % 1011,3 hPa 0,0 l/m 2,5 km/h (1 Bft) S-SO 157 9,8 C 13,8 C
09.06.2012 05:46 14,0 C 78 % 1011,4 hPa 0,0 l/m 0,0 km/h (0 Bft) S-SO 157 10,2 C 14,0 C
09.06.2012 05:51 14,4 C 78 % 1011,4 hPa 0,0 l/m 5,0 km/h (1 Bft) S-SO 157 10,6 C 14,4 C
09.06.2012 05:56 14,9 C 77 % 1011,4 hPa 0,0 l/m 5,8 km/h (2 Bft) S-SO 157 10,9 C 14,9 C
09.06.2012 06:01 15,3 C 75 % 1011,6 hPa 0,0 l/m 7,6 km/h (2 Bft) S 180 10,9 C 15,3 C
09.06.2012 06:06 15,6 C 73 % 1011,6 hPa 0,0 l/m 4,0 km/h (1 Bft) SW 225 10,8 C 15,6 C
09.06.2012 06:11 15,5 C 72 % 1011,5 hPa 0,0 l/m 4,7 km/h (1 Bft) SW 225 10,5 C 15,5 C
09.06.2012 06:16 15,4 C 72 % 1011,7 hPa 0,0 l/m 6,1 km/h (2 Bft) SW 225 10,4 C 15,4 C
09.06.2012 06:21 15,1 C 72 % 1011,7 hPa 0,0 l/m 5,8 km/h (2 Bft) S-SW 202 10,1 C 15,1 C
09.06.2012 06:26 15,0 C 73 % 1011,8 hPa 0,0 l/m 2,5 km/h (1 Bft) W-SW 247 10,2 C 15,0 C
09.06.2012 06:31 15,1 C 72 % 1011,8 hPa 0,0 l/m 5,4 km/h (1 Bft) W-SW 247 10,1 C 15,1 C
09.06.2012 06:36 15,4 C 72 % 1011,9 hPa 0,0 l/m 6,8 km/h (2 Bft) W 270 10,4 C 15,4 C
09.06.2012 06:41 15,6 C 72 % 1012,0 hPa 0,0 l/m 11,5 km/h (2 Bft) W 270 10,6 C 15,6 C
09.06.2012 06:46 15,8 C 71 % 1012,0 hPa 0,0 l/m 6,5 km/h (2 Bft) W 270 10,6 C 15,8 C
09.06.2012 06:51 15,9 C 70 % 1012,0 hPa 0,0 l/m 6,1 km/h (2 Bft) S-SW 202 10,4 C 15,9 C
09.06.2012 06:56 15,9 C 70 % 1012,0 hPa 0,0 l/m 8,3 km/h (2 Bft) W-SW 247 10,4 C 15,9 C
09.06.2012 07:01 15,9 C 70 % 1011,9 hPa 0,0 l/m 5,8 km/h (2 Bft) W-SW 247 10,4 C 15,9 C
09.06.2012 07:06 16,1 C 70 % 1011,8 hPa 0,0 l/m 5,8 km/h (2 Bft) W-SW 247 10,6 C 16,1 C
09.06.2012 07:11 16,2 C 70 % 1011,8 hPa 0,0 l/m 5,0 km/h (1 Bft) W 270 10,7 C 16,2 C
09.06.2012 07:16 16,1 C 69 % 1011,9 hPa 0,0 l/m 7,6 km/h (2 Bft) W-SW 247 10,4 C 16,1 C
09.06.2012 07:21 16,0 C 70 % 1011,8 hPa 0,0 l/m 5,0 km/h (1 Bft) W 270 10,5 C 16,0 C
09.06.2012 07:26 15,9 C 70 % 1011,8 hPa 0,0 l/m 2,9 km/h (1 Bft) SW 225 10,4 C 15,9 C
09.06.2012 07:31 16,2 C 70 % 1011,9 hPa 0,0 l/m 10,1 km/h (2 Bft) W 270 10,7 C 16,2 C
09.06.2012 07:36 16,4 C 70 % 1012,0 hPa 0,0 l/m 6,1 km/h (2 Bft) W-SW 247 10,9 C 16,4 C
09.06.2012 07:41 16,8 C 70 % 1012,0 hPa 0,0 l/m 11,9 km/h (2 Bft) W 270 11,3 C 16,8 C
09.06.2012 07:46 17,0 C 68 % 1012,0 hPa 0,0 l/m 10,1 km/h (2 Bft) S-SW 202 11,0 C 17,0 C
09.06.2012 07:51 17,3 C 68 % 1012,0 hPa 0,0 l/m 14,4 km/h (3 Bft) W 270 11,3 C 17,3 C
09.06.2012 07:56 17,4 C 67 % 1011,8 hPa 0,0 l/m 7,6 km/h (2 Bft) W-SW 247 11,2 C 17,4 C
09.06.2012 08:01 17,5 C 66 % 1011,9 hPa 0,0 l/m 15,5 km/h (3 Bft) SW 225 11,1 C 17,5 C
09.06.2012 08:06 17,6 C 65 % 1011,8 hPa 0,0 l/m 7,9 km/h (2 Bft) W-SW 247 10,9 C 17,6 C
09.06.2012 08:11 17,8 C 64 % 1011,8 hPa 0,0 l/m 12,6 km/h (3 Bft) S 180 10,9 C 17,8 C
09.06.2012 08:16 17,8 C 64 % 1012,0 hPa 0,0 l/m 18,7 km/h (3 Bft) W-SW 247 10,9 C 17,8 C
09.06.2012 08:21 17,9 C 62 % 1012,1 hPa 0,0 l/m 11,5 km/h (2 Bft) W-NW 292 10,5 C 17,9 C
09.06.2012 08:26 18,0 C 61 % 1011,9 hPa 0,0 l/m 7,6 km/h (2 Bft) W 270 10,4 C 18,0 C
09.06.2012 08:31 18,1 C 61 % 1012,0 hPa 0,0 l/m 18,0 km/h (3 Bft) W-SW 247 10,5 C 18,1 C
09.06.2012 08:36 18,2 C 60 % 1012,0 hPa 0,0 l/m 11,9 km/h (2 Bft) W 270 10,3 C 18,2 C
09.06.2012 08:41 18,3 C 60 % 1012,0 hPa 0,0 l/m 11,5 km/h (2 Bft) W-NW 292 10,4 C 18,3 C
09.06.2012 08:46 18,4 C 59 % 1012,0 hPa 0,0 l/m 10,8 km/h (2 Bft) W-SW 247 10,2 C 18,4 C
09.06.2012 08:51 18,4 C 58 % 1012,1 hPa 0,0 l/m 15,5 km/h (3 Bft) SW 225 10,0 C 18,4 C
09.06.2012 08:56 18,4 C 58 % 1012,1 hPa 0,0 l/m 10,1 km/h (2 Bft) W-NW 292 10,0 C 18,4 C
09.06.2012 09:01 18,4 C 57 % 1012,1 hPa 0,0 l/m 9,4 km/h (2 Bft) W-SW 247 9,7 C 18,4 C
09.06.2012 09:06 18,6 C 57 % 1012,1 hPa 0,0 l/m 10,8 km/h (2 Bft) W-SW 247 9,9 C 18,6 C
09.06.2012 09:11 18,8 C 55 % 1012,1 hPa 0,0 l/m 12,6 km/h (3 Bft) W 270 9,6 C 18,8 C
09.06.2012 09:16 18,8 C 54 % 1012,1 hPa 0,0 l/m 10,8 km/h (2 Bft) SW 225 9,3 C 18,8 C
09.06.2012 09:21 18,8 C 53 % 1012,1 hPa 0,0 l/m 9,4 km/h (2 Bft) W 270 9,0 C 18,8 C
09.06.2012 09:26 18,9 C 53 % 1012,2 hPa 0,0 l/m 13,7 km/h (3 Bft) SW 225 9,1 C 18,9 C
09.06.2012 09:31 19,0 C 52 % 1012,1 hPa 0,0 l/m 16,9 km/h (3 Bft) W-SW 247 8,9 C 19,0 C
09.06.2012 09:36 19,1 C 51 % 1012,2 hPa 0,0 l/m 20,5 km/h (4 Bft) S 180 8,7 C 19,1 C
09.06.2012 09:41 19,0 C 51 % 1012,2 hPa 0,0 l/m 16,2 km/h (3 Bft) SW 225 8,6 C 19,0 C
09.06.2012 09:46 19,1 C 50 % 1012,2 hPa 0,0 l/m 24,1 km/h (4 Bft) S 180 8,4 C 19,1 C
09.06.2012 09:51 19,1 C 49 % 1012,3 hPa 0,0 l/m 11,9 km/h (2 Bft) SW 225 8,1 C 19,1 C
09.06.2012 09:56 19,1 C 49 % 1012,1 hPa 0,0 l/m 18,4 km/h (3 Bft) W-SW 247 8,1 C 19,1 C
09.06.2012 10:01 19,2 C 49 % 1012,0 hPa 0,0 l/m 23,4 km/h (4 Bft) W-SW 247 8,2 C 19,2 C
09.06.2012 10:06 19,3 C 49 % 1012,1 hPa 0,0 l/m 27,0 km/h (4 Bft) W-SW 247 8,3 C 19,3 C
09.06.2012 10:11 19,3 C 48 % 1012,1 hPa 0,0 l/m 18,7 km/h (3 Bft) W 270 8,0 C 19,3 C
09.06.2012 10:16 19,4 C 48 % 1012,1 hPa 0,0 l/m 13,3 km/h (3 Bft) SW 225 8,1 C 19,4 C
09.06.2012 10:21 19,5 C 49 % 1012,2 hPa 0,0 l/m 14,8 km/h (3 Bft) W-SW 247 8,5 C 19,5 C
09.06.2012 10:26 19,6 C 49 % 1012,1 hPa 0,0 l/m 18,4 km/h (3 Bft) W-SW 247 8,6 C 19,6 C
09.06.2012 10:31 19,9 C 48 % 1012,1 hPa 0,0 l/m 16,9 km/h (3 Bft) SW 225 8,6 C 19,9 C
09.06.2012 10:36 19,9 C 48 % 1012,3 hPa 0,0 l/m 20,9 km/h (4 Bft) SW 225 8,6 C 19,9 C
09.06.2012 10:41 19,9 C 47 % 1012,2 hPa 0,0 l/m 22,0 km/h (4 Bft) W 270 8,3 C 19,9 C
09.06.2012 10:46 19,9 C 47 % 1012,2 hPa 0,0 l/m 9,4 km/h (2 Bft) SW 225 8,3 C 19,9 C
09.06.2012 10:51 19,9 C 47 % 1012,4 hPa 0,0 l/m 13,0 km/h (3 Bft) S-SW 202 8,3 C 19,9 C
09.06.2012 10:56 20,1 C 47 % 1012,3 hPa 0,0 l/m 16,9 km/h (3 Bft) W-SW 247 8,4 C 20,1 C
09.06.2012 11:01 20,1 C 46 % 1012,3 hPa 0,0 l/m 12,2 km/h (2 Bft) S 180 8,1 C 20,1 C
09.06.2012 11:06 20,2 C 47 % 1012,2 hPa 0,0 l/m 13,7 km/h (3 Bft) W-SW 247 8,5 C 20,2 C
09.06.2012 11:11 20,3 C 46 % 1012,1 hPa 0,0 l/m 13,0 km/h (3 Bft) W-SW 247 8,3 C 20,3 C
09.06.2012 11:16 20,3 C 46 % 1012,3 hPa 0,0 l/m 23,4 km/h (4 Bft) W-SW 247 8,3 C 20,3 C
09.06.2012 11:21 20,2 C 45 % 1012,2 hPa 0,0 l/m 12,6 km/h (3 Bft) W 270 7,9 C 20,2 C
09.06.2012 11:26 19,9 C 45 % 1012,3 hPa 0,0 l/m 14,4 km/h (3 Bft) W-SW 247 7,6 C 19,9 C
09.06.2012 11:31 19,8 C 46 % 1012,2 hPa 0,0 l/m 13,0 km/h (3 Bft) W-SW 247 7,8 C 19,8 C
09.06.2012 11:36 19,9 C 46 % 1012,2 hPa 0,0 l/m 23,4 km/h (4 Bft) NW 315 7,9 C 19,9 C
09.06.2012 11:41 19,9 C 44 % 1012,2 hPa 0,0 l/m 28,1 km/h (4 Bft) W-SW 247 7,3 C 19,9 C
09.06.2012 11:46 20,0 C 43 % 1012,1 hPa 0,0 l/m 17,6 km/h (3 Bft) NW 315 7,0 C 20,0 C
09.06.2012 11:51 19,8 C 43 % 1012,2 hPa 0,0 l/m 9,7 km/h (2 Bft) W-SW 247 6,9 C 19,8 C
09.06.2012 11:56 19,7 C 44 % 1012,2 hPa 0,0 l/m 22,0 km/h (4 Bft) S-SO 157 7,1 C 19,7 C
09.06.2012 12:01 19,9 C 44 % 1012,1 hPa 0,0 l/m 18,0 km/h (3 Bft) W 270 7,3 C 19,9 C
09.06.2012 12:06 19,9 C 43 % 1012,1 hPa 0,0 l/m 17,6 km/h (3 Bft) W 270 6,9 C 19,9 C
09.06.2012 12:11 19,9 C 42 % 1012,0 hPa 0,0 l/m 26,6 km/h (4 Bft) SW 225 6,6 C 19,9 C
09.06.2012 12:16 19,8 C 43 % 1012,0 hPa 0,0 l/m 26,3 km/h (4 Bft) W-SW 247 6,9 C 19,8 C
09.06.2012 12:21 20,1 C 43 % 1011,9 hPa 0,0 l/m 15,5 km/h (3 Bft) W-SW 247 7,1 C 20,1 C
09.06.2012 12:26 20,4 C 43 % 1012,1 hPa 0,0 l/m 17,3 km/h (3 Bft) S-SW 202 7,4 C 20,4 C
09.06.2012 12:31 20,6 C 42 % 1012,1 hPa 0,0 l/m 25,6 km/h (4 Bft) SW 225 7,2 C 20,6 C
09.06.2012 12:36 20,8 C 42 % 1012,1 hPa 0,0 l/m 16,9 km/h (3 Bft) W-SW 247 7,4 C 20,8 C
09.06.2012 12:41 21,0 C 41 % 1012,0 hPa 0,0 l/m 25,2 km/h (4 Bft) W-SW 247 7,2 C 21,0 C
09.06.2012 12:46 21,1 C 41 % 1012,1 hPa 0,0 l/m 25,2 km/h (4 Bft) W-SW 247 7,3 C 21,1 C
09.06.2012 12:51 21,2 C 42 % 1012,0 hPa 0,0 l/m 10,4 km/h (2 Bft) W-SW 247 7,8 C 21,2 C
09.06.2012 12:56 21,3 C 41 % 1012,1 hPa 0,0 l/m 25,6 km/h (4 Bft) SW 225 7,5 C 21,3 C
09.06.2012 13:01 21,3 C 41 % 1012,0 hPa 0,0 l/m 16,9 km/h (3 Bft) W-SW 247 7,5 C 21,3 C
09.06.2012 13:06 21,4 C 40 % 1012,1 hPa 0,0 l/m 27,4 km/h (4 Bft) W 270 7,2 C 21,4 C
09.06.2012 13:11 21,4 C 40 % 1012,0 hPa 0,0 l/m 28,1 km/h (4 Bft) W 270 7,2 C 21,4 C
09.06.2012 13:16 21,4 C 40 % 1012,0 hPa 0,0 l/m 25,9 km/h (4 Bft) SW 225 7,2 C 21,4 C
09.06.2012 13:21 21,4 C 39 % 1012,0 hPa 0,0 l/m 23,4 km/h (4 Bft) W 270 6,9 C 21,4 C
09.06.2012 13:26 21,5 C 40 % 1011,9 hPa 0,0 l/m 14,8 km/h (3 Bft) W 270 7,3 C 21,5 C
09.06.2012 13:31 21,6 C 40 % 1011,9 hPa 0,0 l/m 18,4 km/h (3 Bft) W 270 7,4 C 21,6 C
09.06.2012 13:36 21,3 C 40 % 1011,9 hPa 0,0 l/m 15,5 km/h (3 Bft) W 270 7,1 C 21,3 C
09.06.2012 13:41 21,4 C 40 % 1012,0 hPa 0,0 l/m 15,8 km/h (3 Bft) W-SW 247 7,2 C 21,4 C
09.06.2012 13:46 21,6 C 39 % 1011,8 hPa 0,0 l/m 8,3 km/h (2 Bft) SW 225 7,0 C 21,6 C
09.06.2012 13:51 21,8 C 38 % 1011,8 hPa 0,0 l/m 19,1 km/h (3 Bft) W-SW 247 6,8 C 21,8 C
09.06.2012 13:56 21,9 C 38 % 1011,8 hPa 0,0 l/m 19,4 km/h (3 Bft) S 180 6,9 C 21,9 C
09.06.2012 14:01 21,8 C 37 % 1011,9 hPa 0,0 l/m 29,2 km/h (5 Bft) W 270 6,5 C 21,8 C
09.06.2012 14:06 21,3 C 37 % 1011,9 hPa 0,0 l/m 10,8 km/h (2 Bft) W-SW 247 6,0 C 21,3 C
09.06.2012 14:11 21,0 C 39 % 1012,0 hPa 0,0 l/m 30,2 km/h (5 Bft) W-SW 247 6,5 C 21,0 C
09.06.2012 14:16 20,9 C 39 % 1012,0 hPa 0,0 l/m 23,4 km/h (4 Bft) W-SW 247 6,4 C 20,9 C
09.06.2012 14:21 21,3 C 39 % 1012,0 hPa 0,0 l/m 21,6 km/h (4 Bft) W-SW 247 6,8 C 21,3 C
09.06.2012 14:26 21,6 C 39 % 1012,0 hPa 0,0 l/m 14,4 km/h (3 Bft) W-SW 247 7,0 C 21,6 C
09.06.2012 14:31 21,8 C 38 % 1011,9 hPa 0,0 l/m 12,6 km/h (3 Bft) W 270 6,8 C 21,8 C
09.06.2012 14:36 21,9 C 38 % 1011,9 hPa 0,0 l/m 15,5 km/h (3 Bft) W 270 6,9 C 21,9 C
09.06.2012 14:41 21,9 C 39 % 1011,9 hPa 0,0 l/m 6,1 km/h (2 Bft) W 270 7,3 C 21,9 C
09.06.2012 14:46 21,8 C 39 % 1011,9 hPa 0,0 l/m 13,7 km/h (3 Bft) W-SW 247 7,2 C 21,8 C
09.06.2012 14:51 22,1 C 38 % 1012,0 hPa 0,0 l/m 7,2 km/h (2 Bft) W-SW 247 7,1 C 22,1 C
09.06.2012 14:56 22,3 C 38 % 1012,0 hPa 0,0 l/m 18,7 km/h (3 Bft) W 270 7,3 C 22,3 C
09.06.2012 15:01 22,0 C 38 % 1012,0 hPa 0,0 l/m 10,4 km/h (2 Bft) W 270 7,0 C 22,0 C
09.06.2012 15:06 21,8 C 38 % 1012,1 hPa 0,0 l/m 6,1 km/h (2 Bft) NW 315 6,8 C 21,8 C
09.06.2012 15:11 21,5 C 38 % 1012,0 hPa 0,0 l/m 14,0 km/h (3 Bft) W 270 6,6 C 21,5 C
09.06.2012 15:16 21,4 C 39 % 1012,0 hPa 0,0 l/m 12,2 km/h (2 Bft) W-SW 247 6,9 C 21,4 C
09.06.2012 15:21 21,2 C 39 % 1012,1 hPa 0,0 l/m 10,4 km/h (2 Bft) W-NW 292 6,7 C 21,2 C
09.06.2012 15:26 21,2 C 40 % 1012,0 hPa 0,0 l/m 18,0 km/h (3 Bft) S-SW 202 7,1 C 21,2 C
09.06.2012 15:31 21,4 C 40 % 1011,9 hPa 0,0 l/m 16,9 km/h (3 Bft) W-SW 247 7,2 C 21,4 C
09.06.2012 15:36 21,4 C 38 % 1011,9 hPa 0,0 l/m 16,6 km/h (3 Bft) W-SW 247 6,5 C 21,4 C
09.06.2012 15:41 21,3 C 37 % 1012,0 hPa 0,0 l/m 8,6 km/h (2 Bft) W 270 6,0 C 21,3 C
09.06.2012 15:46 21,6 C 38 % 1012,0 hPa 0,0 l/m 13,7 km/h (3 Bft) W 270 6,7 C 21,6 C
09.06.2012 15:51 21,6 C 38 % 1012,0 hPa 0,0 l/m 22,7 km/h (4 Bft) W-NW 292 6,7 C 21,6 C
09.06.2012 15:56 21,8 C 36 % 1012,2 hPa 0,0 l/m 23,4 km/h (4 Bft) SW 225 6,1 C 21,8 C
09.06.2012 16:01 21,5 C 37 % 1012,1 hPa 0,0 l/m 11,9 km/h (2 Bft) W-SW 247 6,2 C 21,5 C
09.06.2012 16:06 21,2 C 37 % 1012,2 hPa 0,0 l/m 22,0 km/h (4 Bft) W 270 5,9 C 21,2 C
09.06.2012 16:11 21,3 C 37 % 1012,1 hPa 0,0 l/m 15,5 km/h (3 Bft) W-SW 247 6,0 C 21,3 C
09.06.2012 16:16 21,4 C 37 % 1012,1 hPa 0,0 l/m 23,0 km/h (4 Bft) W-NW 292 6,1 C 21,4 C
09.06.2012 16:21 21,6 C 38 % 1012,0 hPa 0,0 l/m 27,0 km/h (4 Bft) W-NW 292 6,7 C 21,6 C
09.06.2012 16:26 21,8 C 38 % 1012,0 hPa 0,0 l/m 10,1 km/h (2 Bft) W-SW 247 6,8 C 21,8 C
09.06.2012 16:31 21,9 C 38 % 1012,0 hPa 0,0 l/m 13,7 km/h (3 Bft) W 270 6,9 C 21,9 C
09.06.2012 16:36 21,9 C 38 % 1012,1 hPa 0,0 l/m 19,1 km/h (3 Bft) SW 225 6,9 C 21,9 C
09.06.2012 16:41 22,1 C 36 % 1012,0 hPa 0,0 l/m 5,0 km/h (1 Bft) NW 315 6,3 C 22,1 C
09.06.2012 16:46 22,0 C 38 % 1012,1 hPa 0,0 l/m 14,0 km/h (3 Bft) W-SW 247 7,0 C 22,0 C
09.06.2012 16:51 22,1 C 36 % 1012,2 hPa 0,0 l/m 9,7 km/h (2 Bft) W-NW 292 6,3 C 22,1 C
09.06.2012 16:56 21,9 C 36 % 1012,2 hPa 0,0 l/m 10,4 km/h (2 Bft) W 270 6,1 C 21,9 C
09.06.2012 17:01 21,9 C 36 % 1012,2 hPa 0,0 l/m 23,8 km/h (4 Bft) NW 315 6,1 C 21,9 C
09.06.2012 17:06 22,0 C 36 % 1012,3 hPa 0,0 l/m 14,4 km/h (3 Bft) SW 225 6,2 C 22,0 C
09.06.2012 17:11 22,1 C 36 % 1012,2 hPa 0,0 l/m 11,9 km/h (2 Bft) W-SW 247 6,3 C 22,1 C
09.06.2012 17:16 22,2 C 36 % 1012,1 hPa 0,0 l/m 10,1 km/h (2 Bft) SW 225 6,4 C 22,2 C
09.06.2012 17:21 22,3 C 35 % 1012,1 hPa 0,0 l/m 15,1 km/h (3 Bft) W-SW 247 6,1 C 22,3 C
09.06.2012 17:26 22,3 C 35 % 1012,1 hPa 0,0 l/m 17,6 km/h (3 Bft) W 270 6,1 C 22,3 C
09.06.2012 17:31 22,3 C 35 % 1012,1 hPa 0,0 l/m 14,0 km/h (3 Bft) W-SW 247 6,1 C 22,3 C
09.06.2012 17:36 22,3 C 35 % 1012,2 hPa 0,0 l/m 10,8 km/h (2 Bft) W-SW 247 6,1 C 22,3 C
09.06.2012 17:41 22,4 C 35 % 1012,2 hPa 0,0 l/m 19,4 km/h (3 Bft) W-SW 247 6,2 C 22,4 C
09.06.2012 17:46 22,3 C 34 % 1012,2 hPa 0,0 l/m 12,2 km/h (2 Bft) W-SW 247 5,7 C 22,3 C
09.06.2012 17:51 22,1 C 35 % 1012,2 hPa 0,0 l/m 6,5 km/h (2 Bft) W 270 5,9 C 22,1 C
09.06.2012 17:56 21,9 C 36 % 1012,3 hPa 0,0 l/m 6,1 km/h (2 Bft) W 270 6,1 C 21,9 C
09.06.2012 18:01 22,1 C 36 % 1012,3 hPa 0,0 l/m 21,2 km/h (4 Bft) W-SW 247 6,3 C 22,1 C
09.06.2012 18:06 21,9 C 35 % 1012,3 hPa 0,0 l/m 12,6 km/h (3 Bft) W 270 5,7 C 21,9 C
09.06.2012 18:11 22,1 C 34 % 1012,2 hPa 0,0 l/m 6,8 km/h (2 Bft) W-SW 247 5,5 C 22,1 C
09.06.2012 18:16 21,9 C 34 % 1012,2 hPa 0,0 l/m 14,4 km/h (3 Bft) W 270 5,3 C 21,9 C
09.06.2012 18:21 21,8 C 34 % 1012,2 hPa 0,0 l/m 20,9 km/h (4 Bft) W-NW 292 5,2 C 21,8 C
09.06.2012 18:26 21,8 C 35 % 1012,2 hPa 0,0 l/m 18,0 km/h (3 Bft) W-NW 292 5,7 C 21,8 C
09.06.2012 18:31 21,8 C 34 % 1012,4 hPa 0,0 l/m 7,2 km/h (2 Bft) W-NW 292 5,2 C 21,8 C
09.06.2012 18:36 21,8 C 35 % 1012,3 hPa 0,0 l/m 16,9 km/h (3 Bft) NW 315 5,7 C 21,8 C
09.06.2012 18:41 21,8 C 34 % 1012,4 hPa 0,0 l/m 8,6 km/h (2 Bft) W 270 5,2 C 21,8 C
09.06.2012 18:46 21,6 C 34 % 1012,4 hPa 0,0 l/m 24,5 km/h (4 Bft) W 270 5,1 C 21,6 C
09.06.2012 18:51 21,8 C 34 % 1012,4 hPa 0,0 l/m 23,0 km/h (4 Bft) W-SW 247 5,2 C 21,8 C
09.06.2012 18:56 21,6 C 34 % 1012,4 hPa 0,0 l/m 7,9 km/h (2 Bft) W 270 5,1 C 21,6 C
09.06.2012 19:01 21,4 C 34 % 1012,6 hPa 0,0 l/m 8,6 km/h (2 Bft) W-NW 292 4,9 C 21,4 C
09.06.2012 19:06 21,3 C 34 % 1012,5 hPa 0,0 l/m 14,4 km/h (3 Bft) W-NW 292 4,8 C 21,3 C
09.06.2012 19:11 21,3 C 35 % 1012,5 hPa 0,0 l/m 11,2 km/h (2 Bft) W-SW 247 5,2 C 21,3 C
09.06.2012 19:16 21,4 C 35 % 1012,5 hPa 0,0 l/m 24,8 km/h (4 Bft) W-SW 247 5,3 C 21,4 C
09.06.2012 19:21 21,5 C 34 % 1012,6 hPa 0,0 l/m 12,2 km/h (2 Bft) W-NW 292 5,0 C 21,5 C
09.06.2012 19:26 21,5 C 35 % 1012,5 hPa 0,0 l/m 4,7 km/h (1 Bft) W-SW 247 5,4 C 21,5 C
09.06.2012 19:31 21,4 C 35 % 1012,6 hPa 0,0 l/m 11,2 km/h (2 Bft) W-NW 292 5,3 C 21,4 C
09.06.2012 19:36 21,3 C 35 % 1012,6 hPa 0,0 l/m 9,4 km/h (2 Bft) W 270 5,2 C 21,3 C
09.06.2012 19:41 21,2 C 34 % 1012,7 hPa 0,0 l/m 10,8 km/h (2 Bft) W 270 4,7 C 21,2 C
09.06.2012 19:46 21,1 C 35 % 1012,7 hPa 0,0 l/m 10,8 km/h (2 Bft) W-SW 247 5,0 C 21,1 C
09.06.2012 19:51 20,9 C 35 % 1012,8 hPa 0,0 l/m 16,6 km/h (3 Bft) W-SW 247 4,9 C 20,9 C
09.06.2012 19:56 20,7 C 35 % 1012,8 hPa 0,0 l/m 12,2 km/h (2 Bft) W-NW 292 4,7 C 20,7 C
09.06.2012 20:01 20,5 C 35 % 1012,8 hPa 0,0 l/m 8,3 km/h (2 Bft) W-SW 247 4,5 C 20,5 C
09.06.2012 20:06 20,5 C 36 % 1012,9 hPa 0,0 l/m 4,0 km/h (1 Bft) W-SW 247 4,9 C 20,5 C
09.06.2012 20:11 20,4 C 36 % 1012,7 hPa 0,0 l/m 9,7 km/h (2 Bft) W 270 4,8 C 20,4 C
09.06.2012 20:16 20,4 C 36 % 1012,9 hPa 0,0 l/m 7,6 km/h (2 Bft) W-NW 292 4,8 C 20,4 C
09.06.2012 20:21 20,1 C 36 % 1012,9 hPa 0,0 l/m 6,5 km/h (2 Bft) W-SW 247 4,6 C 20,1 C
09.06.2012 20:26 19,9 C 37 % 1012,8 hPa 0,0 l/m 5,8 km/h (2 Bft) W 270 4,8 C 19,9 C
09.06.2012 20:31 19,8 C 37 % 1012,8 hPa 0,0 l/m 6,5 km/h (2 Bft) NW 315 4,7 C 19,8 C
09.06.2012 20:36 19,6 C 38 % 1012,9 hPa 0,0 l/m 4,3 km/h (1 Bft) W-NW 292 4,9 C 19,6 C
09.06.2012 20:41 19,4 C 39 % 1012,9 hPa 0,0 l/m 8,3 km/h (2 Bft) W-NW 292 5,1 C 19,4 C
09.06.2012 20:46 19,3 C 39 % 1013,0 hPa 0,0 l/m 5,0 km/h (1 Bft) W 270 5,0 C 19,3 C
09.06.2012 20:51 19,1 C 40 % 1013,0 hPa 0,0 l/m 5,0 km/h (1 Bft) W-NW 292 5,2 C 19,1 C
09.06.2012 20:56 19,0 C 41 % 1013,1 hPa 0,0 l/m 2,9 km/h (1 Bft) W 270 5,4 C 19,0 C
09.06.2012 21:01 18,9 C 41 % 1013,1 hPa 0,0 l/m 0,0 km/h (0 Bft) W 270 5,4 C 18,9 C
09.06.2012 21:06 18,7 C 41 % 1013,2 hPa 0,0 l/m 6,1 km/h (2 Bft) W-NW 292 5,2 C 18,7 C
09.06.2012 21:11 18,6 C 42 % 1013,3 hPa 0,0 l/m 4,0 km/h (1 Bft) W 270 5,4 C 18,6 C
09.06.2012 21:16 18,4 C 42 % 1013,3 hPa 0,0 l/m 2,2 km/h (1 Bft) W-NW 292 5,3 C 18,4 C
09.06.2012 21:21 18,4 C 42 % 1013,2 hPa 0,0 l/m 3,2 km/h (1 Bft) W-NW 292 5,3 C 18,4 C
09.06.2012 21:26 18,3 C 43 % 1013,3 hPa 0,0 l/m 2,9 km/h (1 Bft) W-NW 292 5,5 C 18,3 C
09.06.2012 21:31 18,3 C 44 % 1013,3 hPa 0,0 l/m 0,0 km/h (0 Bft) W-NW 292 5,8 C 18,3 C
09.06.2012 21:36 18,2 C 44 % 1013,1 hPa 0,0 l/m 0,0 km/h (0 Bft) NW 315 5,7 C 18,2 C
09.06.2012 21:41 18,1 C 45 % 1013,3 hPa 0,0 l/m 0,0 km/h (0 Bft) W 270 6,0 C 18,1 C
09.06.2012 21:46 18,1 C 45 % 1013,3 hPa 0,0 l/m 0,0 km/h (0 Bft) SW 225 6,0 C 18,1 C
09.06.2012 21:51 18,0 C 46 % 1013,3 hPa 0,0 l/m 0,0 km/h (0 Bft) SW 225 6,2 C 18,0 C
09.06.2012 21:56 17,9 C 46 % 1013,4 hPa 0,0 l/m 0,0 km/h (0 Bft) SW 225 6,1 C 17,9 C
09.06.2012 22:01 17,8 C 47 % 1013,4 hPa 0,0 l/m 0,0 km/h (0 Bft) SW 225 6,3 C 17,8 C
09.06.2012 22:06 17,8 C 47 % 1013,4 hPa 0,0 l/m 0,0 km/h (0 Bft) SW 225 6,3 C 17,8 C
09.06.2012 22:11 17,6 C 47 % 1013,4 hPa 0,0 l/m 0,0 km/h (0 Bft) S 180 6,2 C 17,6 C
09.06.2012 22:16 17,5 C 47 % 1013,5 hPa 0,0 l/m 1,1 km/h (1 Bft) S 180 6,1 C 17,5 C
09.06.2012 22:21 17,4 C 48 % 1013,4 hPa 0,0 l/m 0,0 km/h (0 Bft) S 180 6,3 C 17,4 C
09.06.2012 22:26 17,3 C 48 % 1013,4 hPa 0,0 l/m 0,0 km/h (0 Bft) S 180 6,2 C 17,3 C
09.06.2012 22:31 17,2 C 48 % 1013,5 hPa 0,0 l/m 0,0 km/h (0 Bft) S 180 6,1 C 17,2 C
09.06.2012 22:36 17,1 C 48 % 1013,4 hPa 0,0 l/m 2,2 km/h (1 Bft) SW 225 6,0 C 17,1 C
09.06.2012 22:41 17,0 C 49 % 1013,5 hPa 0,0 l/m 2,2 km/h (1 Bft) W-SW 247 6,2 C 17,0 C
09.06.2012 22:46 16,9 C 48 % 1013,5 hPa 0,0 l/m 6,5 km/h (2 Bft) SW 225 5,8 C 16,9 C
09.06.2012 22:51 16,9 C 48 % 1013,5 hPa 0,0 l/m 3,2 km/h (1 Bft) W-SW 247 5,8 C 16,9 C
09.06.2012 22:56 16,8 C 48 % 1013,5 hPa 0,0 l/m 3,6 km/h (1 Bft) NW 315 5,7 C 16,8 C
09.06.2012 23:01 16,5 C 48 % 1013,5 hPa 0,0 l/m 6,1 km/h (2 Bft) W-NW 292 5,5 C 16,5 C
09.06.2012 23:06 16,4 C 48 % 1013,4 hPa 0,0 l/m 5,4 km/h (1 Bft) W-SW 247 5,4 C 16,4 C
09.06.2012 23:11 16,3 C 48 % 1013,3 hPa 0,0 l/m 4,0 km/h (1 Bft) SW 225 5,3 C 16,3 C
09.06.2012 23:16 16,3 C 48 % 1013,4 hPa 0,0 l/m 3,6 km/h (1 Bft) NW 315 5,3 C 16,3 C
09.06.2012 23:21 16,2 C 48 % 1013,4 hPa 0,0 l/m 5,0 km/h (1 Bft) W 270 5,2 C 16,2 C
09.06.2012 23:26 15,9 C 49 % 1013,4 hPa 0,0 l/m 3,6 km/h (1 Bft) W-NW 292 5,2 C 15,9 C
09.06.2012 23:31 15,9 C 49 % 1013,4 hPa 0,0 l/m 1,4 km/h (1 Bft) W 270 5,2 C 15,9 C
09.06.2012 23:36 15,8 C 49 % 1013,4 hPa 0,0 l/m 3,2 km/h (1 Bft) W-NW 292 5,1 C 15,8 C
09.06.2012 23:41 15,8 C 50 % 1013,4 hPa 0,0 l/m 2,5 km/h (1 Bft) W 270 5,4 C 15,8 C
09.06.2012 23:46 15,8 C 50 % 1013,4 hPa 0,0 l/m 3,2 km/h (1 Bft) W-NW 292 5,4 C 15,8 C
09.06.2012 23:51 15,7 C 50 % 1013,3 hPa 0,0 l/m 0,0 km/h (0 Bft) W 270 5,3 C 15,7 C
09.06.2012 23:56 15,6 C 50 % 1013,4 hPa 0,0 l/m 0,0 km/h (0 Bft) W-SW 247 5,2 C 15,6 C
_ Min-Zeit 05:26 17:46 00:16 - 00:06 - - 20:01 05:26
Minimum _ 13,8 C 34 % 1009,9 hPa - 0,0 km/h (0 Bft) - - 4,5 C 13,8 C
_ Max-Zeit 17:41 05:46 22:16 00:01 14:11 - - 07:51 17:41
Maximum _ 22,4 C 78 % 1013,5 hPa 0,0 l/m 30,2 km/h
W-SW (5 Bft)
- - 11,3 C 22,4 C
Durchschnitt _ 18,3 C 53 % 1011,9 hPa #0,0 l/m 9,8 km/h (2 Bft) W-SW - 7,9 C 18,3 C
(c) by David Heller